createdAt,value
2023-03-08T00:01:22.590Z,8.60
2023-03-08T00:03:58.114Z,8.41
2023-03-08T00:06:27.574Z,8.43
2023-03-08T00:09:00.161Z,8.48
2023-03-08T00:11:29.189Z,8.38
2023-03-08T00:13:58.089Z,8.46
2023-03-08T00:16:26.027Z,8.43
2023-03-08T00:18:54.471Z,8.54
2023-03-08T00:21:22.567Z,8.47
2023-03-08T00:23:53.926Z,8.55
2023-03-08T00:26:22.393Z,8.45
2023-03-08T00:28:50.562Z,8.45
2023-03-08T00:31:18.809Z,8.50
2023-03-08T00:33:46.824Z,8.55
2023-03-08T00:36:17.431Z,8.49
2023-03-08T00:38:46.801Z,8.48
2023-03-08T00:41:15.504Z,8.53
2023-03-08T00:43:43.502Z,8.44
2023-03-08T00:46:12.364Z,8.57
2023-03-08T00:48:40.819Z,8.52
2023-03-08T00:51:14.579Z,8.62
2023-03-08T00:53:43.222Z,8.54
2023-03-08T00:56:11.679Z,8.40
2023-03-08T00:58:41.661Z,8.29
2023-03-08T01:01:18.090Z,8.09
2023-03-08T01:03:48.553Z,8.01
2023-03-08T01:06:17.027Z,8.41
2023-03-08T01:08:45.184Z,8.28
2023-03-08T01:11:36.694Z,8.29
2023-03-08T01:14:08.155Z,8.21
2023-03-08T01:16:37.155Z,8.49
2023-03-08T01:19:05.600Z,8.41
2023-03-08T01:21:33.501Z,8.54
2023-03-08T01:24:01.473Z,8.27
2023-03-08T01:26:29.613Z,8.19
2023-03-08T01:28:58.412Z,8.31
2023-03-08T01:31:29.692Z,8.33
2023-03-08T01:33:58.975Z,7.98
2023-03-08T01:36:28.217Z,8.17
2023-03-08T01:38:56.466Z,8.19
2023-03-08T01:41:30.630Z,8.09
2023-03-08T01:43:58.637Z,7.80
2023-03-08T01:46:35.362Z,8.09
2023-03-08T01:49:24.256Z,7.85
2023-03-08T01:52:03.889Z,7.83
2023-03-08T01:54:39.177Z,7.97
2023-03-08T01:57:14.094Z,7.90
2023-03-08T01:59:43.061Z,7.84
2023-03-08T02:02:11.260Z,7.75
2023-03-08T02:04:40.826Z,7.90
2023-03-08T02:07:12.252Z,7.96
2023-03-08T02:09:41.459Z,7.93
2023-03-08T02:12:13.140Z,7.67
2023-03-08T02:14:43.183Z,7.70
2023-03-08T02:17:12.034Z,7.77
2023-03-08T02:19:46.062Z,7.69
2023-03-08T02:22:16.140Z,7.77
2023-03-08T02:24:44.328Z,7.74
2023-03-08T02:27:24.159Z,7.42
2023-03-08T02:29:52.757Z,7.65
2023-03-08T02:32:20.699Z,7.64
2023-03-08T02:34:49.667Z,7.74
2023-03-08T02:37:17.871Z,7.62
2023-03-08T02:39:48.702Z,7.58
2023-03-08T02:42:16.619Z,7.62
2023-03-08T02:44:44.589Z,7.65
2023-03-08T02:47:12.545Z,7.81
2023-03-08T02:49:40.439Z,7.78
2023-03-08T02:52:10.054Z,7.77
2023-03-08T02:54:38.156Z,7.76
2023-03-08T02:57:06.005Z,7.59
2023-03-08T02:59:35.889Z,7.75
2023-03-08T03:02:04.392Z,7.55
2023-03-08T03:04:33.586Z,7.63
2023-03-08T03:07:01.706Z,7.65
2023-03-08T03:09:31.721Z,7.63
2023-03-08T03:11:59.662Z,7.51
2023-03-08T03:14:28.475Z,7.65
2023-03-08T03:16:59.201Z,7.67
2023-03-08T03:19:27.386Z,7.74
2023-03-08T03:21:55.619Z,7.68
2023-03-08T03:24:23.565Z,7.68
2023-03-08T03:26:55.467Z,7.53
2023-03-08T03:29:25.882Z,7.56
2023-03-08T03:32:01.629Z,7.64
2023-03-08T03:34:29.943Z,7.64
2023-03-08T03:36:58.021Z,7.53
2023-03-08T03:39:25.968Z,7.56
2023-03-08T03:41:54.405Z,7.42
2023-03-08T03:44:22.371Z,7.51
2023-03-08T03:46:50.383Z,7.48
2023-03-08T03:49:23.662Z,7.38
2023-03-08T03:51:51.542Z,7.35
2023-03-08T03:54:24.623Z,7.42
2023-03-08T03:56:53.256Z,7.43
2023-03-08T03:59:26.662Z,7.43
2023-03-08T04:01:55.115Z,7.43
2023-03-08T04:04:27.755Z,7.42
2023-03-08T04:06:56.235Z,7.41
2023-03-08T04:09:28.220Z,7.45
2023-03-08T04:12:08.101Z,7.50
2023-03-08T04:14:37.516Z,7.52
2023-03-08T04:17:06.306Z,7.39
2023-03-08T04:19:41.056Z,7.41
2023-03-08T04:22:09.924Z,7.35
2023-03-08T04:24:45.020Z,7.21
2023-03-08T04:27:17.943Z,7.30
2023-03-08T04:29:46.024Z,7.19
2023-03-08T04:32:14.450Z,7.16
2023-03-08T04:34:47.493Z,7.13
2023-03-08T04:37:18.307Z,7.18
2023-03-08T04:39:50.143Z,7.11
2023-03-08T04:42:18.701Z,7.12
2023-03-08T04:44:47.808Z,7.07
2023-03-08T04:47:19.967Z,7.07
2023-03-08T04:49:48.028Z,7.06
2023-03-08T04:52:16.065Z,7.06
2023-03-08T04:54:45.070Z,7.03
2023-03-08T04:57:23.217Z,7.11
2023-03-08T04:59:54.103Z,7.05
2023-03-08T05:02:24.240Z,6.92
2023-03-08T05:04:52.316Z,6.96
2023-03-08T05:07:21.190Z,6.85
2023-03-08T05:09:50.857Z,6.86
2023-03-08T05:12:18.956Z,6.83
2023-03-08T05:14:57.243Z,6.71
2023-03-08T05:17:26.878Z,6.64
2023-03-08T05:19:54.948Z,6.72
2023-03-08T05:22:28.398Z,6.52
2023-03-08T05:24:58.696Z,6.60
2023-03-08T05:27:27.751Z,6.48
2023-03-08T05:29:56.433Z,6.54
2023-03-08T05:32:24.424Z,6.60
2023-03-08T05:34:53.696Z,6.74
2023-03-08T05:37:32.461Z,6.64
2023-03-08T05:40:06.357Z,6.55
2023-03-08T05:42:36.913Z,6.62
2023-03-08T05:45:05.164Z,6.53
2023-03-08T05:47:37.159Z,6.43
2023-03-08T05:50:09.556Z,6.49
2023-03-08T05:52:42.581Z,6.53
2023-03-08T05:55:13.522Z,6.48
2023-03-08T05:57:42.562Z,6.39
2023-03-08T06:00:11.525Z,6.22
2023-03-08T06:02:50.782Z,6.24
2023-03-08T06:05:20.701Z,6.26
2023-03-08T06:07:50.311Z,6.37
2023-03-08T06:10:19.361Z,6.36
2023-03-08T06:12:47.407Z,6.45
2023-03-08T06:15:18.546Z,6.53
2023-03-08T06:17:46.455Z,6.54
2023-03-08T06:20:18.070Z,6.47
2023-03-08T06:22:49.251Z,6.64
2023-03-08T06:25:18.015Z,6.56
2023-03-08T06:27:46.187Z,6.66
2023-03-08T06:30:25.035Z,6.73
2023-03-08T06:32:53.810Z,6.74
2023-03-08T06:35:21.678Z,6.76
2023-03-08T06:37:56.179Z,6.81
2023-03-08T06:40:24.105Z,6.83
2023-03-08T06:42:51.986Z,6.88
2023-03-08T06:45:19.899Z,6.89
2023-03-08T06:47:47.735Z,6.84
2023-03-08T06:50:15.592Z,6.86
2023-03-08T06:52:47.855Z,7.04
2023-03-08T06:55:18.882Z,7.19
2023-03-08T06:57:47.158Z,7.21
2023-03-08T07:00:15.697Z,7.23
2023-03-08T07:02:43.744Z,7.27
2023-03-08T07:05:11.616Z,7.27
2023-03-08T07:07:40.127Z,7.44
2023-03-08T07:10:10.945Z,7.64
2023-03-08T07:12:40.398Z,7.65
2023-03-08T07:15:08.828Z,7.70
2023-03-08T07:17:36.990Z,7.82
2023-03-08T07:20:05.733Z,7.82
2023-03-08T07:22:33.720Z,7.93
2023-03-08T07:25:01.655Z,8.03
2023-03-08T07:27:29.594Z,8.07
2023-03-08T07:29:57.753Z,8.02
2023-03-08T07:32:28.899Z,8.02
2023-03-08T07:34:57.613Z,8.07
2023-03-08T07:37:25.554Z,8.09
2023-03-08T07:39:53.496Z,8.27
2023-03-08T07:42:21.451Z,8.25
2023-03-08T07:44:55.453Z,8.39
2023-03-08T07:47:23.419Z,8.43
2023-03-08T07:49:51.326Z,8.45
2023-03-08T07:52:19.186Z,8.44
2023-03-08T07:54:47.144Z,8.49
2023-03-08T07:57:16.058Z,8.46
2023-03-08T07:59:44.131Z,8.45
2023-03-08T08:02:13.836Z,8.45
2023-03-08T08:04:42.041Z,8.26
2023-03-08T08:07:15.606Z,8.59
2023-03-08T08:09:43.692Z,8.73
2023-03-08T08:12:11.811Z,8.94
2023-03-08T08:14:39.723Z,8.89
2023-03-08T08:17:11.903Z,9.00
2023-03-08T08:19:39.881Z,8.94
2023-03-08T08:22:07.706Z,9.02
2023-03-08T08:24:35.886Z,9.09
2023-03-08T08:27:04.114Z,9.24
2023-03-08T08:29:31.983Z,9.12
2023-03-08T08:31:59.894Z,9.18
2023-03-08T08:34:28.077Z,9.32
2023-03-08T08:36:56.656Z,9.36
2023-03-08T08:39:24.836Z,9.38
2023-03-08T08:41:52.704Z,9.53
2023-03-08T08:44:20.591Z,9.44
2023-03-08T08:46:48.496Z,9.57
2023-03-08T08:49:16.475Z,9.72
2023-03-08T08:51:44.440Z,9.82
2023-03-08T08:54:12.335Z,9.97
2023-03-08T08:56:42.968Z,9.97
2023-03-08T08:59:12.467Z,9.97
2023-03-08T09:01:47.090Z,10.11
2023-03-08T09:04:16.835Z,10.17
2023-03-08T09:06:44.898Z,10.10
2023-03-08T09:09:12.837Z,10.18
2023-03-08T09:11:53.713Z,10.17
2023-03-08T09:14:22.929Z,10.14
2023-03-08T09:16:50.915Z,10.15
2023-03-08T09:19:18.944Z,10.12
2023-03-08T09:21:46.858Z,9.82
2023-03-08T09:24:14.840Z,9.93
2023-03-08T09:26:42.655Z,9.97
2023-03-08T09:29:11.286Z,10.06
2023-03-08T09:31:39.846Z,9.99
2023-03-08T09:34:10.395Z,10.13
2023-03-08T09:36:41.667Z,10.24
2023-03-08T09:39:11.993Z,10.28
2023-03-08T09:41:56.117Z,10.13
2023-03-08T09:44:55.716Z,10.13
2023-03-08T09:47:32.934Z,10.11
2023-03-08T09:50:09.251Z,10.17
2023-03-08T09:52:48.598Z,10.23
2023-03-08T09:55:28.381Z,10.34
2023-03-08T09:58:21.655Z,10.34
2023-03-08T10:00:49.702Z,10.25
2023-03-08T10:03:33.463Z,10.29
2023-03-08T10:06:27.025Z,10.22
2023-03-08T10:09:07.226Z,10.35
2023-03-08T10:11:54.545Z,10.38
2023-03-08T10:14:31.414Z,10.58
2023-03-08T10:17:05.363Z,10.76
2023-03-08T10:19:42.428Z,10.78
2023-03-08T10:22:42.529Z,10.99
2023-03-08T10:25:28.970Z,11.05
2023-03-08T10:27:59.064Z,11.12
2023-03-08T10:30:36.432Z,11.33
2023-03-08T10:33:08.677Z,11.26
2023-03-08T10:35:53.790Z,11.37
2023-03-08T10:38:22.705Z,11.39
2023-03-08T10:40:59.614Z,11.49
2023-03-08T10:43:35.078Z,11.60
2023-03-08T10:46:12.662Z,11.75
2023-03-08T10:48:40.633Z,11.75
2023-03-08T10:51:29.366Z,11.84
2023-03-08T10:54:00.003Z,11.80
2023-03-08T10:56:44.955Z,11.95
2023-03-08T10:59:33.469Z,12.16
2023-03-08T11:02:13.523Z,12.30
2023-03-08T11:05:01.690Z,12.39
2023-03-08T11:07:32.839Z,12.34
2023-03-08T11:10:12.548Z,12.33
2023-03-08T11:12:40.579Z,12.53
2023-03-08T11:15:19.589Z,12.54
2023-03-08T11:18:31.778Z,12.56
2023-03-08T11:21:10.414Z,12.61
2023-03-08T11:23:45.907Z,12.61
2023-03-08T11:26:28.797Z,12.60
2023-03-08T11:29:10.489Z,12.60
2023-03-08T11:31:57.039Z,12.76
2023-03-08T11:34:44.028Z,12.70
2023-03-08T11:37:36.848Z,12.64
2023-03-08T11:40:46.726Z,12.53
2023-03-08T11:43:23.551Z,12.21
2023-03-08T11:46:01.104Z,12.30
2023-03-08T11:48:37.953Z,12.42
2023-03-08T11:51:15.269Z,12.45
2023-03-08T11:53:58.726Z,12.50
2023-03-08T11:56:54.433Z,12.29
2023-03-08T12:00:00.918Z,12.29
2023-03-08T12:02:31.126Z,12.13
2023-03-08T12:05:02.178Z,11.86
2023-03-08T12:07:38.684Z,12.21
2023-03-08T12:10:09.657Z,12.31
2023-03-08T12:13:05.071Z,12.35
2023-03-08T12:15:38.006Z,12.18
2023-03-08T12:18:38.126Z,12.36
2023-03-08T12:21:14.698Z,12.30
2023-03-08T12:23:48.296Z,12.35
2023-03-08T12:26:54.269Z,12.37
2023-03-08T12:29:50.136Z,12.40
2023-03-08T12:32:20.072Z,12.22
2023-03-08T12:34:48.368Z,11.96
2023-03-08T12:37:22.309Z,12.14
2023-03-08T12:40:26.546Z,12.23
2023-03-08T12:43:26.859Z,12.19
2023-03-08T12:46:05.052Z,12.09
2023-03-08T12:48:44.337Z,12.15
2023-03-08T12:51:12.242Z,12.20
2023-03-08T12:53:41.223Z,12.07
2023-03-08T12:56:12.234Z,12.10
2023-03-08T12:58:48.060Z,12.11
2023-03-08T13:01:40.519Z,12.11
2023-03-08T13:04:40.322Z,12.15
2023-03-08T13:07:19.035Z,12.16
2023-03-08T13:09:55.150Z,12.30
2023-03-08T13:12:32.341Z,12.35
2023-03-08T13:15:13.634Z,12.17
2023-03-08T13:17:48.853Z,12.17
2023-03-08T13:20:29.035Z,12.17
2023-03-08T13:23:05.291Z,12.17
2023-03-08T13:25:52.343Z,12.23
2023-03-08T13:28:22.859Z,12.17
2023-03-08T13:30:57.250Z,12.15
2023-03-08T13:33:30.066Z,12.07
2023-03-08T13:36:06.273Z,12.16
2023-03-08T13:38:36.569Z,12.07
2023-03-08T13:41:04.796Z,12.03
2023-03-08T13:43:34.968Z,11.77
2023-03-08T13:46:06.353Z,11.56
2023-03-08T13:48:35.945Z,11.80
2023-03-08T13:51:04.238Z,11.92
2023-03-08T13:53:35.545Z,12.10
2023-03-08T13:56:06.006Z,12.11
2023-03-08T13:58:40.464Z,12.03
2023-03-08T14:01:18.784Z,11.76
2023-03-08T14:03:47.472Z,11.98
2023-03-08T14:06:29.837Z,12.13
2023-03-08T14:09:04.708Z,12.10
2023-03-08T14:11:35.329Z,12.09
2023-03-08T14:14:09.288Z,12.14
2023-03-08T14:16:41.881Z,11.91
2023-03-08T14:19:22.038Z,11.92
2023-03-08T14:21:54.552Z,11.89
2023-03-08T14:24:26.121Z,11.93
2023-03-08T14:27:25.134Z,11.96
2023-03-08T14:30:02.775Z,11.99
2023-03-08T14:32:35.806Z,11.89
2023-03-08T14:35:07.848Z,11.97
2023-03-08T14:37:35.772Z,12.02
2023-03-08T14:40:31.548Z,11.96
2023-03-08T14:43:02.998Z,12.01
2023-03-08T14:45:34.683Z,12.03
2023-03-08T14:48:28.397Z,12.00
2023-03-08T14:51:18.856Z,12.01
2023-03-08T14:54:05.886Z,11.95
2023-03-08T14:56:34.861Z,11.99
2023-03-08T14:59:05.433Z,12.04
2023-03-08T15:01:36.206Z,12.08
2023-03-08T15:04:06.982Z,12.03
2023-03-08T15:06:36.957Z,12.12
2023-03-08T15:09:07.977Z,12.01
2023-03-08T15:11:36.068Z,11.95
2023-03-08T15:14:04.396Z,12.08
2023-03-08T15:16:32.357Z,12.10
2023-03-08T15:19:00.467Z,12.07
2023-03-08T15:21:29.459Z,12.01
2023-03-08T15:23:58.244Z,12.02
2023-03-08T15:26:32.271Z,11.98
2023-03-08T15:29:03.962Z,12.10
2023-03-08T15:31:32.183Z,12.07
2023-03-08T15:34:01.559Z,12.05
2023-03-08T15:36:32.573Z,11.98
2023-03-08T15:39:01.394Z,12.01
2023-03-08T15:41:29.467Z,12.01
2023-03-08T15:43:57.372Z,11.97
2023-03-08T15:46:25.258Z,11.99
2023-03-08T15:48:53.174Z,12.02
2023-03-08T15:51:22.871Z,11.96
2023-03-08T15:53:50.793Z,11.86
2023-03-08T15:56:18.709Z,11.93
2023-03-08T15:58:46.565Z,11.94
2023-03-08T16:01:14.673Z,11.94
2023-03-08T16:03:42.688Z,11.89
2023-03-08T16:06:12.273Z,11.91
2023-03-08T16:08:40.985Z,11.92
2023-03-08T16:11:10.889Z,11.85
2023-03-08T16:13:38.967Z,11.87
2023-03-08T16:16:07.570Z,11.86
2023-03-08T16:18:37.130Z,11.86
2023-03-08T16:21:09.156Z,11.85
2023-03-08T16:23:39.198Z,11.80
2023-03-08T16:26:15.872Z,11.91
2023-03-08T16:28:46.516Z,11.69
2023-03-08T16:31:16.563Z,11.82
2023-03-08T16:33:44.603Z,11.85
2023-03-08T16:36:13.126Z,11.88
2023-03-08T16:38:41.594Z,11.82
2023-03-08T16:41:13.215Z,11.83
2023-03-08T16:43:47.690Z,11.85
2023-03-08T16:46:21.454Z,11.85
2023-03-08T16:48:53.441Z,11.65
2023-03-08T16:51:25.058Z,11.59
2023-03-08T16:53:54.099Z,11.79
2023-03-08T16:56:24.835Z,11.80
2023-03-08T16:58:54.362Z,11.73
2023-03-08T17:01:23.443Z,11.68
2023-03-08T17:03:51.986Z,11.74
2023-03-08T17:06:22.416Z,11.69
2023-03-08T17:08:50.590Z,11.66
2023-03-08T17:11:24.498Z,11.72
2023-03-08T17:13:55.489Z,11.75
2023-03-08T17:16:26.996Z,11.75
2023-03-08T17:18:56.614Z,11.69
2023-03-08T17:21:25.170Z,11.73
2023-03-08T17:23:53.675Z,11.71
2023-03-08T17:26:23.152Z,11.70
2023-03-08T17:28:52.987Z,11.69
2023-03-08T17:31:23.081Z,11.69
2023-03-08T17:33:51.326Z,11.71
2023-03-08T17:36:20.234Z,11.74
2023-03-08T17:38:48.341Z,11.71
2023-03-08T17:41:16.619Z,11.68
2023-03-08T17:43:44.712Z,11.69
2023-03-08T17:46:18.174Z,11.70
2023-03-08T17:48:46.698Z,11.66
2023-03-08T17:51:17.340Z,11.66
2023-03-08T17:53:45.737Z,11.65
2023-03-08T17:56:21.054Z,11.61
2023-03-08T17:58:49.624Z,11.66
2023-03-08T18:01:20.753Z,11.63
2023-03-08T18:03:48.895Z,11.58
2023-03-08T18:06:35.000Z,11.52
2023-03-08T18:09:06.724Z,11.52
2023-03-08T18:11:37.967Z,11.46
2023-03-08T18:14:07.803Z,11.44
2023-03-08T18:16:35.856Z,11.43
2023-03-08T18:19:05.474Z,11.45
2023-03-08T18:21:36.008Z,11.40
2023-03-08T18:24:05.183Z,11.40
2023-03-08T18:26:33.458Z,11.37
2023-03-08T18:29:01.566Z,11.37
2023-03-08T18:31:32.236Z,11.37
2023-03-08T18:34:00.167Z,11.33
2023-03-08T18:36:28.391Z,11.27
2023-03-08T18:38:57.660Z,11.31
2023-03-08T18:41:27.930Z,11.34
2023-03-08T18:43:58.383Z,11.33
2023-03-08T18:46:30.098Z,11.31
2023-03-08T18:49:11.300Z,11.31
2023-03-08T18:51:41.568Z,11.28
2023-03-08T18:54:15.967Z,11.23
2023-03-08T18:56:44.757Z,11.13
2023-03-08T18:59:14.046Z,11.18
2023-03-08T19:01:42.000Z,11.24
2023-03-08T19:04:10.568Z,11.14
2023-03-08T19:06:38.900Z,11.19
2023-03-08T19:09:15.846Z,11.21
2023-03-08T19:11:44.786Z,11.12
2023-03-08T19:14:13.118Z,11.00
2023-03-08T19:16:41.185Z,11.10
2023-03-08T19:19:12.176Z,11.08
2023-03-08T19:21:42.744Z,11.03
2023-03-08T19:24:15.739Z,11.01
2023-03-08T19:26:47.356Z,11.08
2023-03-08T19:29:23.681Z,11.10
2023-03-08T19:32:03.381Z,10.85
2023-03-08T19:34:34.863Z,10.94
2023-03-08T19:37:05.196Z,11.00
2023-03-08T19:39:36.813Z,11.04
2023-03-08T19:42:08.177Z,10.97
2023-03-08T19:44:36.601Z,11.02
2023-03-08T19:47:05.091Z,11.08
2023-03-08T19:49:36.281Z,11.03
2023-03-08T19:52:06.032Z,10.86
2023-03-08T19:54:34.535Z,10.81
2023-03-08T19:57:02.734Z,10.79
2023-03-08T19:59:31.013Z,10.58
2023-03-08T20:01:58.994Z,10.77
2023-03-08T20:04:27.061Z,10.65
2023-03-08T20:06:59.558Z,10.66
2023-03-08T20:09:27.737Z,10.43
2023-03-08T20:11:58.815Z,10.32
2023-03-08T20:14:27.843Z,10.23
2023-03-08T20:16:56.655Z,10.57
2023-03-08T20:19:24.850Z,10.49
2023-03-08T20:21:53.025Z,10.48
2023-03-08T20:24:23.253Z,10.47
2023-03-08T20:26:51.231Z,10.38
2023-03-08T20:29:19.398Z,10.47
2023-03-08T20:31:48.241Z,10.40
2023-03-08T20:34:17.434Z,10.41
2023-03-08T20:36:45.383Z,10.16
2023-03-08T20:39:13.409Z,9.98
2023-03-08T20:41:41.315Z,10.32
2023-03-08T20:44:11.039Z,10.42
2023-03-08T20:46:39.062Z,10.42
2023-03-08T20:49:06.950Z,10.38
2023-03-08T20:51:36.372Z,10.36
2023-03-08T20:54:06.126Z,9.78
2023-03-08T20:56:34.290Z,10.34
2023-03-08T20:59:02.482Z,10.50
2023-03-08T21:01:32.399Z,10.56
2023-03-08T21:04:01.035Z,10.49
2023-03-08T21:06:30.895Z,10.56
2023-03-08T21:08:59.822Z,10.57
2023-03-08T21:11:28.821Z,10.53
2023-03-08T21:13:57.022Z,10.64
2023-03-08T21:16:27.424Z,10.61
2023-03-08T21:18:57.607Z,10.73
2023-03-08T21:21:35.507Z,10.67
2023-03-08T21:24:11.338Z,10.70
2023-03-08T21:26:39.981Z,10.59
2023-03-08T21:29:12.209Z,10.61
2023-03-08T21:31:43.336Z,10.71
2023-03-08T21:34:12.825Z,10.72
2023-03-08T21:36:40.950Z,10.68
2023-03-08T21:39:10.038Z,10.83
2023-03-08T21:41:40.117Z,10.59
2023-03-08T21:44:12.594Z,10.38
2023-03-08T21:46:41.653Z,10.40
2023-03-08T21:49:21.732Z,10.48
2023-03-08T21:51:50.286Z,10.54
2023-03-08T21:54:18.741Z,10.52
2023-03-08T21:56:47.314Z,10.50
2023-03-08T21:59:16.745Z,10.60
2023-03-08T22:01:50.172Z,10.65
2023-03-08T22:04:18.194Z,10.59
2023-03-08T22:06:46.616Z,10.67
2023-03-08T22:09:14.595Z,10.64
2023-03-08T22:11:42.464Z,10.59
2023-03-08T22:14:10.823Z,10.61
2023-03-08T22:16:41.622Z,10.62
2023-03-08T22:19:10.174Z,10.69
2023-03-08T22:21:38.135Z,10.70
2023-03-08T22:24:06.178Z,10.67
2023-03-08T22:26:34.216Z,10.79
2023-03-08T22:29:02.065Z,10.70
2023-03-08T22:31:30.806Z,10.72
2023-03-08T22:33:59.054Z,10.67
2023-03-08T22:36:27.083Z,10.79
2023-03-08T22:38:54.945Z,10.79
2023-03-08T22:41:27.347Z,10.80
2023-03-08T22:43:55.410Z,10.81
2023-03-08T22:46:26.426Z,10.77
2023-03-08T22:48:56.536Z,10.80
2023-03-08T22:51:27.692Z,10.76
2023-03-08T22:53:56.241Z,10.75
2023-03-08T22:56:29.554Z,10.77
2023-03-08T22:58:58.288Z,10.76
2023-03-08T23:01:27.983Z,10.72
2023-03-08T23:03:58.024Z,10.73
2023-03-08T23:06:30.295Z,10.64
2023-03-08T23:09:06.269Z,10.63
2023-03-08T23:11:35.476Z,10.75
2023-03-08T23:14:04.095Z,10.67
2023-03-08T23:16:32.969Z,10.64
2023-03-08T23:19:00.980Z,10.70
2023-03-08T23:21:30.499Z,10.59
2023-03-08T23:23:58.468Z,10.61
2023-03-08T23:26:27.502Z,10.67
2023-03-08T23:28:57.771Z,10.81
2023-03-08T23:31:28.509Z,10.77
2023-03-08T23:33:57.123Z,10.74
2023-03-08T23:36:25.980Z,10.58
2023-03-08T23:38:55.210Z,10.68
2023-03-08T23:41:23.574Z,10.68
2023-03-08T23:43:59.476Z,10.78
2023-03-08T23:46:28.722Z,10.92
2023-03-08T23:48:58.129Z,10.92
2023-03-08T23:51:28.605Z,10.89
2023-03-08T23:53:59.567Z,10.91
2023-03-08T23:56:37.778Z,10.85
2023-03-08T23:59:21.148Z,10.88
